EBCI - Charleroi/Gosselies, Belgium
Distance de la station: NE 18km
Mise à jour: 08/12/2021 03:50
principalement nuageux
principalement nuageux
 Wind from SSO
Vent: SSO 28 km/h
Température: 5°C
Température ressentie: 1°C
Point de rosée: 2°C
Humidité: 81%
Baromètre: 994 hPa
Ciel: principalement nuageux
Visibilité: 10 km
Détails du ciel: quelques nuages 579 m
principalement nuageux 762 m
2021/12/08 02:50 EBCI 080250Z 21015KT 9999 FEW019 BKN025 05/02 Q0994 NOSIG
EBFS - Florennes, Belgium
Distance de la station: ESE 31km
Mise à jour: 08/12/2021 03:33
principalement nuageux
principalement nuageux
 Wind from SO
Vent: SO 20 km/h
Température: 5°C
Température ressentie: 1°C
Point de rosée: 3°C
Humidité: 87%
Baromètre: 994 hPa
Ciel: principalement nuageux
Visibilité: 10 km
Détails du ciel: quelques nuages 427 m
partiellement nuageux 610 m
principalement nuageux 6401 m
2021/12/08 02:33 EBFS 080233Z AUTO 22011KT 9999 FEW014/// SCT020/// BKN210/// 05/03 Q0994 WHT
EBCV - Chievres, Belgium
Distance de la station: NO 40km
Mise à jour: 08/12/2021 03:25
principalement nuageux
principalement nuageux
 Wind from SSO
Vent: SSO 28 km/h
Température: 5°C
Température ressentie: 1°C
Point de rosée: 3°C
Humidité: 87%
Baromètre: 993 hPa
Ciel: principalement nuageux
Visibilité: 10 km
Détails du ciel: principalement nuageux 7315 m
2021/12/08 02:25 EBCV 080225Z AUTO 21015KT 9999 BKN240/// 05/03 Q0993 BLU
 
EBBE - Beauvechain, Belgium
Distance de la station: NE 57km
Mise à jour: 08/12/2021 03:25
principalement nuageux
principalement nuageux
 Wind from SO
Vent: SO 31 km/h
Température: 6°C
Température ressentie: 1°C
Point de rosée: 3°C
Humidité: 81%
Baromètre: 993 hPa
Ciel: principalement nuageux
Visibilité: 10 km
Détails du ciel: quelques nuages 610 m
partiellement nuageux 853 m
principalement nuageux 1036 m
2021/12/08 02:25 EBBE 080225Z AUTO 22017KT 9999 FEW020/// SCT028/// BKN034/// 06/03 Q0993 BLU
EBBR - Brussels National, Belgium
Distance de la station: NNE 63km
Mise à jour: 08/12/2021 03:50
quelques nuages
quelques nuages
 Wind from SSO
Vent: SSO 26 km/h
Température: 6°C
Température ressentie: 2°C
Point de rosée: 3°C
Humidité: 81%
Baromètre: 993 hPa
Ciel: quelques nuages
Visibilité: 10 km
Détails du ciel: quelques nuages 732 m
2021/12/08 02:50 EBBR 080250Z 21014KT 9999 FEW024 06/03 Q0993 NOSIG
LFQI - Cambrai/Epinoy, France
Distance de la station: O 82km
Mise à jour: 29/06/2012 12:30
NOT Current

 Wind from SO
Vent: SO 17 km/h
Température: 18°C
Point de rosée: 14°C
Humidité: 78%
Baromètre: 1009 hPa
2012/06/29 10:30 LFQI 291030Z AUTO 22009KT //// // ///////// 18/14 Q1009
 
LFQQ - Lille/Lesquin, France
Distance de la station: ONO 86km
Mise à jour: 08/12/2021 03:30
quelques nuages
quelques nuages
 Wind from S
Vent: S 26 km/h
Température: 5°C
Température ressentie: 1°C
Point de rosée: 3°C
Humidité: 87%
Baromètre: 993 hPa
Ciel: quelques nuages
Visibilité: 10 km
Détails du ciel: quelques nuages 823 m
2021/12/08 02:30 LFQQ 080230Z AUTO 19014KT 9999 FEW027 05/03 Q0993 BECMG 23015G25KT
EBLG - Bierset/Liege, Belgium
Distance de la station: ENE 89km
Mise à jour: 08/12/2021 03:50
partiellement nuageux
partiellement nuageux
 Wind from SSO
Vent: SSO 22 km/h
Température: 6°C
Température ressentie: 2°C
Point de rosée: 4°C
Humidité: 87%
Baromètre: 994 hPa
Ciel: partiellement nuageux
Visibilité: 10 km
Détails du ciel: partiellement nuageux 579 m
2021/12/08 02:50 EBLG 080250Z 21012KT 9999 SCT019 06/04 Q0994 NOSIG
EBDT - Schaffen, Belgium
Distance de la station: NE 93km
Mise à jour: 08/12/2021 03:25
principalement nuageux
principalement nuageux
 Wind from SSO
Vent: SSO 17 km/h
Température: 7°C
Température ressentie: 4°C
Point de rosée: 4°C
Humidité: 81%
Baromètre: 993 hPa
Ciel: principalement nuageux
Visibilité: 10 km
Détails du ciel: principalement nuageux 671 m
principalement nuageux 7010 m
2021/12/08 02:25 EBDT 080225Z AUTO 20009KT 9999 BKN022/// BKN230/// 07/04 Q0993 WHT
 
EBAW - Antwerp/Deurne, Belgium
Distance de la station: N 96km
Mise à jour: 08/12/2021 03:50
couvert
couvert
 Wind from SSO
Vent: SSO 13 km/h
Température: 6°C
Température ressentie: 3°C
Point de rosée: 3°C
Humidité: 81%
Baromètre: 993 hPa
Ciel: couvert
Visibilité: 10 km
Détails du ciel: principalement nuageux 640 m
couvert 762 m
2021/12/08 02:50 EBAW 080250Z AUTO 20007KT 170V230 9999 // BKN021/// OVC025/// 06/03 Q0993
LFAQ - Bray, France
Distance de la station: OSO 119km
Mise à jour: 08/12/2021 03:30
quelques nuages
quelques nuages
 Wind from SSO
Vent: SSO 26 km/h
Température: 4°C
Température ressentie: -1°C
Point de rosée: 2°C
Humidité: 87%
Baromètre: 994 hPa
Ciel: quelques nuages
Visibilité: 10 km
Détails du ciel: quelques nuages 762 m
2021/12/08 02:30 LFAQ 080230Z AUTO 21014KT 9999 FEW025 04/02 Q0994
LFSR - Reims/Champagne, France
Distance de la station: S 120km
Mise à jour: 16/04/2012 09:00
NOT Current
partiellement nuageux
partiellement nuageux
 Wind from N
Vent: N 17 km/h
Température: 4°C
Température ressentie: 0°C
Point de rosée: 0°C
Humidité: 75%
Baromètre: 1022 hPa
Ciel: partiellement nuageux
Visibilité: 10 km
2012/04/16 07:00 LFSR 160700Z AUTO 01009KT 340V070 9999 NSC 04/00 Q1022
 
EHWO - Woensdrecht, Netherlands
Distance de la station: N 122km
Mise à jour: 08/12/2021 03:55
principalement nuageux
principalement nuageux
 Wind from SO
Vent: SO 20 km/h
Température: 7°C
Température ressentie: 4°C
Point de rosée: 4°C
Humidité: 81%
Baromètre: 992 hPa
Ciel: principalement nuageux
Visibilité: 10 km
Détails du ciel: partiellement nuageux 579 m
partiellement nuageux 701 m
principalement nuageux 792 m
2021/12/08 02:55 EHWO 080255Z AUTO 22011KT 180V250 9999 SCT019 SCT023 BKN026 07/04 Q0992 WHT
EHBK - Zuid-Limburg, Netherlands
Distance de la station: ENE 123km
Mise à jour: 08/12/2021 03:55
principalement nuageux
principalement nuageux
 Wind from SO
Vent: SO 28 km/h
Température: 7°C
Température ressentie: 3°C
Point de rosée: 4°C
Humidité: 81%
Baromètre: 994 hPa
Ciel: principalement nuageux
Visibilité: 10 km
Détails du ciel: quelques nuages 610 m
partiellement nuageux 701 m
principalement nuageux 823 m
2021/12/08 02:55 EHBK 080255Z AUTO 22015KT 190V250 9999 FEW020 SCT023 BKN027 07/04 Q0994
EBBL - Kleine-Brogel, Belgium
Distance de la station: NE 124km
Mise à jour: 08/12/2021 03:25
principalement nuageux
principalement nuageux
 Wind from SSO
Vent: SSO 19 km/h
Température: 7°C
Température ressentie: 4°C
Point de rosée: 5°C
Humidité: 87%
Baromètre: 993 hPa
Ciel: principalement nuageux
Visibilité: 10 km
Détails du ciel: principalement nuageux 640 m
principalement nuageux 1951 m
2021/12/08 02:25 EBBL 080225Z AUTO 21010KT 9999 BKN021/// BKN064/// 07/05 Q0993 WHT
 
EBLB - Elsenborn, Belgium
Distance de la station: E 135km
Mise à jour: 08/12/2021 03:25
principalement nuageux
principalement nuageux
 Wind from SSO
Vent: SSO 13 km/h
Température: 3°C
Température ressentie: -1°C
Point de rosée: 3°C
Humidité: 100%
Baromètre: 994 hPa
Ciel: principalement nuageux
Visibilité: 10 km
Détails du ciel: principalement nuageux 152 m
2021/12/08 02:25 EBLB 080225Z AUTO 21007KT 9999 BKN005/// 03/03 Q0994 YLO
EBOS - Oostende Airport, Belgium
Distance de la station: NO 136km
Mise à jour: 08/12/2021 03:50
partiellement nuageux
partiellement nuageux
 Wind from S
Vent: S 28 km/h
Température: 4°C
Température ressentie: -1°C
Point de rosée: 3°C
Humidité: 93%
Baromètre: 991 hPa
Ciel: partiellement nuageux
Visibilité: 10 km
Détails du ciel: quelques nuages 732 m
partiellement nuageux 1067 m
2021/12/08 02:50 EBOS 080250Z 19015KT 9999 FEW024TCU SCT035 04/03 Q0991 TEMO 4000 SHGSRA BKN014CB
EBFN - Koksijde, Belgium
Distance de la station: NO 140km
Mise à jour: 08/12/2021 03:42
principalement nuageux
principalement nuageux
 Wind from S
Vent: S 24 km/h
Température: 5°C
Température ressentie: 1°C
Point de rosée: 3°C
Humidité: 87%
Baromètre: 991 hPa
Ciel: principalement nuageux
Visibilité: 10 km
Détails du ciel: partiellement nuageux 732 m
principalement nuageux 1646 m
principalement nuageux 2377 m
2021/12/08 02:42 EBFN 080242Z AUTO 19013KT 9999 SCT024/// BKN054/// BKN078/// 05/03 Q0991 WHT
 
ETNG - Geilenkirchen, Germany
Distance de la station: ENE 142km
Mise à jour: 07/12/2021 20:50
NOT Current
clair
clair
 Wind from ESE
Vent: ESE 11 km/h
Température: 6°C
Température ressentie: 4°C
Point de rosée: 1°C
Humidité: 71%
Baromètre: 997 hPa
Résumé: clair
Visibilité: greater than 10 km
2021/12/07 19:50 ETNG 071950Z 11006KT CAVOK 06/01 Q0997 NOSIG
EHGR - Gilze-Rijen, Netherlands
Distance de la station: NNE 143km
Mise à jour: 08/12/2021 03:55
couvert
couvert
 Wind from SSO
Vent: SSO 19 km/h
Température: 7°C
Température ressentie: 4°C
Point de rosée: 4°C
Humidité: 81%
Baromètre: 992 hPa
Ciel: couvert
Visibilité: 10 km
Détails du ciel: quelques nuages 488 m
principalement nuageux 792 m
couvert 914 m
2021/12/08 02:55 EHGR 080255Z AUTO 20010KT 150V250 9999 FEW016 BKN026 OVC030 07/04 Q0992 BLU
EHEH - Eindhoven, Netherlands
Distance de la station: NNE 147km
Mise à jour: 08/12/2021 03:55
couvert
couvert
 Wind from S
Vent: S 17 km/h
Température: 7°C
Température ressentie: 4°C
Point de rosée: 5°C
Humidité: 87%
Baromètre: 993 hPa
Ciel: couvert
Visibilité: 10 km
Détails du ciel: partiellement nuageux 1006 m
principalement nuageux 1158 m
couvert 1341 m
2021/12/08 02:55 EHEH 080255Z AUTO 19009KT 9999 SCT033 BKN038 OVC044 07/05 Q0993 BLU
 
ELLX - Luxembourg, Luxembourg
Distance de la station: ESE 162km
Mise à jour: 08/12/2021 03:50
pluie légère, principalement nuageux
pluie légère, principalement nuageux
 Wind from SSO
Vent: SSO 19 km/h
Température: 5°C
Température ressentie: 1°C
Point de rosée: 4°C
Humidité: 93%
Baromètre: 996 hPa
Résumé: pluie légère
Ciel: principalement nuageux
Visibilité: 4 km
Détails du ciel: partiellement nuageux 213 m
principalement nuageux 335 m
2021/12/08 02:50 ELLX 080250Z 21010KT 3500 -RA SCT007 BKN011 05/04 Q0996 NOSIG
EHVK - Volkel, Netherlands
Distance de la station: NE 174km
Mise à jour: 08/12/2021 03:55
couvert
couvert
 Wind from SSO
Vent: SSO 24 km/h
Température: 7°C
Température ressentie: 3°C
Point de rosée: 5°C
Humidité: 87%
Baromètre: 993 hPa
Ciel: couvert
Visibilité: 10 km
Détails du ciel: principalement nuageux 1067 m
couvert 1189 m
2021/12/08 02:55 EHVK 080255Z AUTO 20013KT 160V230 9999 BKN035 OVC039 07/05 Q0993 BLU
LFOK - Chalons/Vatry, France
Distance de la station: S 174km
Mise à jour: 08/12/2021 03:30
couvert
couvert
 Wind from SO
Vent: SO 31 km/h
Température: 6°C
Température ressentie: 1°C
Point de rosée: 2°C
Humidité: 76%
Baromètre: 998 hPa
Ciel: couvert
Visibilité: 10 km
Détails du ciel: quelques nuages 732 m
principalement nuageux 6706 m
couvert 7010 m
2021/12/08 02:30 LFOK 080230Z AUTO 22017KT 9999 FEW024 BKN220 OVC230 06/02 Q0998 NOSIG
Script from Saratoga-Weather.org